Time;durP1;ratioP1;P1;durP2;ratioP2;P2;SDS_P1;SDS_P2;PMS_P1;PMS_P2;Temp;Humidity;BMP_temperature;BMP_pressure;BME280_temperature;BME280_humidity;BME280_pressure;Samples;Min_cycle;Max_cycle;Signal;HPM_P1;HPM_P2
2024/03/15 00:02:13;;;;;;;4.88;4.47;;;12.30;99.90;;;;;;5062047;28;20040;-67
2024/03/15 00:04:39;;;;;;;6.30;5.00;;;12.60;99.90;;;;;;5061577;28;20054;-67
2024/03/15 00:07:05;;;;;;;8.15;4.85;;;12.20;99.90;;;;;;5063586;28;20043;-67
2024/03/15 00:09:31;;;;;;;6.55;5.90;;;12.20;99.90;;;;;;5080514;28;20762;-67
2024/03/15 00:11:57;;;;;;;6.00;5.28;;;12.10;99.90;;;;;;5058947;28;20156;-67
2024/03/15 00:14:23;;;;;;;6.03;5.03;;;12.00;99.90;;;;;;5061738;28;20036;-67
2024/03/15 00:16:51;;;;;;;6.13;5.53;;;12.10;99.90;;;;;;5057856;28;20459;-67
2024/03/15 00:19:24;;;;;;;7.30;5.72;;;12.00;99.90;;;;;;5059839;28;20097;-67
2024/03/15 00:21:49;;;;;;;6.00;5.43;;;11.90;99.90;;;;;;5067856;28;20489;-67
2024/03/15 00:24:15;;;;;;;6.40;5.30;;;11.80;99.90;;;;;;5083961;28;20044;-66
2024/03/15 00:26:47;;;;;;;6.13;5.53;;;11.80;99.90;;;;;;5065377;28;20040;-67
2024/03/15 00:29:13;;;;;;;7.75;5.70;;;11.80;99.90;;;;;;5067662;28;21611;-67
2024/03/15 00:31:39;;;;;;;5.10;4.65;;;11.80;99.90;;;;;;5087984;28;20040;-67
2024/03/15 00:34:06;;;;;;;6.28;5.63;;;11.90;99.90;;;;;;5068051;28;20044;-67
2024/03/15 00:36:32;;;;;;;5.57;5.07;;;11.80;99.90;;;;;;5067042;28;20047;-67
2024/03/15 00:38:58;;;;;;;7.57;5.60;;;11.70;99.90;;;;;;5052481;28;20047;-67
2024/03/15 00:41:24;;;;;;;7.43;6.10;;;11.80;99.90;;;;;;5086801;28;20766;-67
2024/03/15 00:43:51;;;;;;;7.05;4.80;;;11.80;99.90;;;;;;5067069;28;20047;-67
2024/03/15 00:46:17;;;;;;;9.70;5.40;;;11.80;99.90;;;;;;5084879;28;20037;-67
2024/03/15 00:48:43;;;;;;;5.22;4.72;;;11.80;99.90;;;;;;5099657;27;20035;-67
2024/03/15 00:51:09;;;;;;;5.28;4.53;;;11.80;99.90;;;;;;5066838;28;20439;-67
2024/03/15 00:53:39;;;;;;;11.05;4.60;;;11.80;99.90;;;;;;5065037;28;20097;-67
2024/03/15 00:56:04;;;;;;;5.93;5.05;;;11.80;99.90;;;;;;5073896;28;20071;-67
2024/03/15 00:58:30;;;;;;;6.78;5.68;;;11.80;99.90;;;;;;5086883;28;20113;-67
2024/03/15 01:00:57;;;;;;;5.72;4.45;;;11.80;99.90;;;;;;5101077;27;20048;-67
2024/03/15 01:03:25;;;;;;;6.60;4.68;;;11.70;99.90;;;;;;5065817;28;20056;-67
2024/03/15 01:05:51;;;;;;;5.22;3.90;;;11.80;99.90;;;;;;5075938;28;20059;-67
2024/03/15 01:08:18;;;;;;;5.38;4.45;;;11.80;99.90;;;;;;5066240;28;20766;-67
2024/03/15 01:10:47;;;;;;;6.15;4.25;;;11.80;99.90;;;;;;5085158;28;20048;-67
2024/03/15 01:13:13;;;;;;;4.40;3.90;;;11.80;99.90;;;;;;5065630;28;20393;-66
2024/03/15 01:15:39;;;;;;;7.75;4.78;;;11.80;99.90;;;;;;5067136;28;20040;-67
2024/03/15 01:18:05;;;;;;;4.68;4.28;;;11.80;99.90;;;;;;5065513;28;20044;-67
2024/03/15 01:20:32;;;;;;;6.63;4.43;;;11.80;99.90;;;;;;5066572;28;20048;-67
2024/03/15 01:22:58;;;;;;;4.43;4.00;;;11.70;99.90;;;;;;5064985;28;20181;-67
2024/03/15 01:25:23;;;;;;;4.93;4.38;;;11.70;99.90;;;;;;5073410;28;20044;-67
2024/03/15 01:27:49;;;;;;;6.55;4.18;;;11.70;99.90;;;;;;5084940;27;20097;-67
2024/03/15 01:30:14;;;;;;;5.22;4.32;;;11.70;99.90;;;;;;5084705;28;20051;-67
2024/03/15 01:32:40;;;;;;;6.38;4.63;;;11.70;99.90;;;;;;5100190;27;20044;-67
2024/03/15 01:35:07;;;;;;;6.90;4.85;;;11.60;99.90;;;;;;5067166;28;20058;-67
2024/03/15 01:37:32;;;;;;;4.65;4.15;;;11.60;99.90;;;;;;5084024;28;20452;-67
2024/03/15 01:39:59;;;;;;;7.38;4.30;;;11.60;99.90;;;;;;5066239;28;20054;-67
2024/03/15 01:42:24;;;;;;;4.95;4.45;;;11.60;99.90;;;;;;5100270;27;20088;-67
2024/03/15 01:44:57;;;;;;;8.88;4.20;;;11.60;99.90;;;;;;5084102;28;20043;-67
2024/03/15 01:47:27;;;;;;;6.05;4.53;;;11.60;99.90;;;;;;5086490;28;20721;-67
2024/03/15 01:49:56;;;;;;;4.28;3.88;;;11.50;99.90;;;;;;5084333;28;20040;-67
2024/03/15 01:52:23;;;;;;;4.78;4.38;;;11.50;99.90;;;;;;5086842;28;20067;-67
2024/03/15 01:54:48;;;;;;;4.95;4.50;;;11.50;99.90;;;;;;5097821;27;20186;-67
2024/03/15 01:57:15;;;;;;;5.25;4.00;;;11.50;99.90;;;;;;5084231;28;20134;-67
2024/03/15 01:59:44;;;;;;;5.75;4.47;;;11.60;99.90;;;;;;5069343;28;20043;-67
2024/03/15 02:02:10;;;;;;;5.15;4.38;;;11.50;99.90;;;;;;5097421;27;20478;-67
2024/03/15 02:04:36;;;;;;;5.80;5.28;;;11.50;99.90;;;;;;5064199;28;20119;-67
2024/03/15 02:07:03;;;;;;;5.25;4.50;;;11.60;99.90;;;;;;5065331;28;20144;-67
2024/03/15 02:09:28;;;;;;;6.18;4.43;;;11.60;99.90;;;;;;5088516;28;20036;-67
2024/03/15 02:11:57;;;;;;;5.10;4.60;;;11.60;99.90;;;;;;5064538;28;20032;-67
2024/03/15 02:14:23;;;;;;;4.68;4.20;;;11.60;99.90;;;;;;5084334;28;20115;-67
2024/03/15 02:16:49;;;;;;;4.50;4.10;;;11.60;99.90;;;;;;5083394;27;20051;-67
2024/03/15 02:19:15;;;;;;;6.85;4.65;;;11.70;99.90;;;;;;5066537;28;20051;-67
2024/03/15 02:21:41;;;;;;;9.07;5.60;;;11.70;99.90;;;;;;5064658;28;20481;-67
2024/03/15 02:24:07;;;;;;;5.30;4.78;;;11.70;99.90;;;;;;5082376;28;20044;-67
2024/03/15 02:26:33;;;;;;;5.30;4.78;;;11.80;99.90;;;;;;5073573;28;20039;-67
2024/03/15 02:29:01;;;;;;;4.30;3.83;;;11.80;99.90;;;;;;5083939;28;20035;-67
2024/03/15 02:31:27;;;;;;;5.32;4.78;;;11.80;99.90;;;;;;5098274;27;20043;-67
2024/03/15 02:33:54;;;;;;;6.18;4.88;;;11.80;99.90;;;;;;5084425;28;20038;-67
2024/03/15 02:36:20;;;;;;;6.38;4.80;;;11.90;99.90;;;;;;5066035;28;20056;-67
2024/03/15 02:38:47;;;;;;;5.10;4.55;;;11.90;99.90;;;;;;5065045;28;20067;-67
2024/03/15 02:41:16;;;;;;;4.93;4.13;;;11.90;99.90;;;;;;5084079;28;21485;-67
2024/03/15 02:43:42;;;;;;;4.93;4.45;;;11.90;99.90;;;;;;5081485;28;20052;-67
2024/03/15 02:46:08;;;;;;;6.38;4.88;;;12.00;99.90;;;;;;5083830;28;20139;-67
2024/03/15 02:48:40;;;;;;;5.75;5.20;;;11.90;99.90;;;;;;5061783;28;20046;-67
2024/03/15 02:51:06;;;;;;;7.05;5.05;;;12.00;99.90;;;;;;5084399;28;20385;-67
2024/03/15 02:53:32;;;;;;;6.65;4.93;;;12.00;99.90;;;;;;5067400;28;20044;-67
2024/03/15 02:56:01;;;;;;;5.15;4.53;;;12.10;99.90;;;;;;5063984;28;20051;-67
2024/03/15 02:58:27;;;;;;;5.45;4.88;;;12.00;99.90;;;;;;5082937;28;20545;-67
2024/03/15 03:00:56;;;;;;;5.20;4.70;;;12.00;99.90;;;;;;5096906;27;20110;-67
2024/03/15 03:03:22;;;;;;;7.50;5.18;;;12.00;99.90;;;;;;5099058;27;20066;-67
2024/03/15 03:05:48;;;;;;;5.90;5.30;;;12.00;99.90;;;;;;5064795;28;20490;-67
2024/03/15 03:08:16;;;;;;;5.63;5.13;;;12.00;99.90;;;;;;5095969;27;20096;-67
2024/03/15 03:10:42;;;;;;;5.47;5.00;;;12.00;99.90;;;;;;5084919;28;20093;-67
2024/03/15 03:13:07;;;;;;;5.97;5.03;;;12.00;99.90;;;;;;5096969;27;21214;-67
2024/03/15 03:15:33;;;;;;;7.00;5.55;;;12.10;99.90;;;;;;5063807;28;20168;-67
2024/03/15 03:18:00;;;;;;;7.93;5.72;;;12.00;99.90;;;;;;5061543;28;20040;-67
2024/03/15 03:20:28;;;;;;;7.10;5.10;;;11.90;99.90;;;;;;5084206;28;20039;-67
2024/03/15 03:22:54;;;;;;;5.97;5.28;;;11.90;99.90;;;;;;5083890;28;20557;-68
2024/03/15 03:25:20;;;;;;;6.80;5.15;;;11.90;99.90;;;;;;5085878;28;20092;-67
2024/03/15 03:27:46;;;;;;;9.02;5.72;;;11.90;99.90;;;;;;5083927;28;20043;-67
2024/03/15 03:30:13;;;;;;;6.45;5.80;;;11.90;99.90;;;;;;5066472;28;20044;-67
2024/03/15 03:32:40;;;;;;;6.68;5.70;;;11.90;99.90;;;;;;5096797;27;20084;-67
2024/03/15 03:35:06;;;;;;;7.70;5.82;;;11.90;99.90;;;;;;5098327;27;20138;-67
2024/03/15 03:37:32;;;;;;;7.72;4.88;;;11.90;99.90;;;;;;5054544;28;20042;-67
2024/03/15 03:39:58;;;;;;;7.68;5.05;;;11.40;99.90;;;;;;5099088;27;20052;-67
2024/03/15 03:42:25;;;;;;;5.18;4.78;;;11.80;99.90;;;;;;5085755;28;20494;-67
2024/03/15 03:44:51;;;;;;;6.40;5.40;;;11.90;99.90;;;;;;5067129;28;20048;-67
2024/03/15 03:47:16;;;;;;;6.70;5.88;;;11.80;99.90;;;;;;5089543;27;20055;-67
2024/03/15 03:49:42;;;;;;;8.50;6.18;;;11.70;99.90;;;;;;5086298;28;20401;-67
2024/03/15 03:52:07;;;;;;;6.13;5.53;;;11.70;99.90;;;;;;5086952;28;20043;-67
2024/03/15 03:54:33;;;;;;;7.28;6.22;;;11.70;99.90;;;;;;5086847;28;20725;-68
2024/03/15 03:56:59;;;;;;;7.90;5.57;;;11.70;99.90;;;;;;5088229;28;20047;-68
2024/03/15 03:59:28;;;;;;;6.72;5.82;;;11.70;99.90;;;;;;5067803;28;20666;-68
2024/03/15 04:01:54;;;;;;;9.02;6.97;;;11.70;99.90;;;;;;5088985;28;20554;-68
2024/03/15 04:04:21;;;;;;;7.07;5.65;;;11.70;99.90;;;;;;5098159;27;20485;-68
2024/03/15 04:06:49;;;;;;;7.57;6.30;;;11.70;99.90;;;;;;5069247;28;20488;-68
2024/03/15 04:09:16;;;;;;;9.88;6.40;;;11.70;99.90;;;;;;5068422;28;20127;-67
2024/03/15 04:11:42;;;;;;;7.53;6.60;;;11.60;99.90;;;;;;5083723;27;20098;-68
2024/03/15 04:14:08;;;;;;;10.63;7.43;;;11.70;99.90;;;;;;5068927;27;20055;-67
2024/03/15 04:16:34;;;;;;;10.35;6.70;;;11.70;99.90;;;;;;5090210;27;20055;-68
2024/03/15 04:18:59;;;;;;;8.95;6.88;;;11.60;99.90;;;;;;5082755;28;20044;-68
2024/03/15 04:21:25;;;;;;;20.95;8.05;;;11.70;99.90;;;;;;5081865;28;20532;-68
2024/03/15 04:23:53;;;;;;;8.45;7.05;;;11.70;99.90;;;;;;5100306;27;20051;-68
2024/03/15 04:26:21;;;;;;;8.13;7.28;;;11.60;99.90;;;;;;5083615;28;20040;-68
2024/03/15 04:28:49;;;;;;;11.18;7.35;;;11.60;99.90;;;;;;5113817;27;20124;-68
2024/03/15 04:31:16;;;;;;;13.77;8.23;;;11.60;99.90;;;;;;5083148;28;20036;-68
2024/03/15 04:33:42;;;;;;;9.43;7.93;;;11.60;99.90;;;;;;5081433;28;20047;-68
2024/03/15 04:36:08;;;;;;;9.13;8.23;;;11.60;99.90;;;;;;5080070;28;20115;-68
2024/03/15 04:38:33;;;;;;;8.70;7.75;;;11.50;99.90;;;;;;5082512;28;20204;-68
2024/03/15 04:41:09;;;;;;;9.30;7.35;;;11.60;99.90;;;;;;5115235;27;20086;-68
2024/03/15 04:43:36;;;;;;;12.70;9.35;;;11.50;99.90;;;;;;5111636;27;20513;-68
2024/03/15 04:46:03;;;;;;;12.40;8.68;;;11.50;99.90;;;;;;5086857;28;20451;-68
2024/03/15 04:48:29;;;;;;;11.18;9.38;;;11.50;99.90;;;;;;5073209;28;20097;-68
2024/03/15 04:50:55;;;;;;;10.35;8.63;;;11.50;99.90;;;;;;5090551;28;20135;-68
2024/03/15 04:53:20;;;;;;;11.57;9.02;;;11.50;99.90;;;;;;5066577;28;20039;-68
2024/03/15 04:55:46;;;;;;;10.07;8.63;;;11.50;99.90;;;;;;5089277;28;20032;-68
2024/03/15 04:58:11;;;;;;;11.73;8.82;;;11.50;99.90;;;;;;5067952;28;20662;-68
2024/03/15 05:00:37;;;;;;;12.27;9.93;;;11.50;99.90;;;;;;5086180;28;21109;-68
2024/03/15 05:03:06;;;;;;;13.65;10.02;;;11.50;99.90;;;;;;5070352;28;20047;-68
2024/03/15 05:05:32;;;;;;;10.75;9.65;;;11.50;99.90;;;;;;5068079;28;20107;-68
2024/03/15 05:07:58;;;;;;;15.00;9.73;;;11.50;99.90;;;;;;5071794;28;20156;-68
2024/03/15 05:10:23;;;;;;;10.80;9.73;;;11.70;99.90;;;;;;5068617;28;20481;-68
2024/03/15 05:12:50;;;;;;;11.93;9.95;;;11.40;99.90;;;;;;5089809;28;21565;-68
2024/03/15 05:15:16;;;;;;;11.38;9.65;;;11.40;99.90;;;;;;5073150;28;20093;-68
2024/03/15 05:17:42;;;;;;;13.32;9.60;;;11.40;99.90;;;;;;5082560;28;20126;-68
2024/03/15 05:20:14;;;;;;;12.82;10.00;;;11.40;99.90;;;;;;5062562;28;21114;-69
2024/03/15 05:22:40;;;;;;;15.15;11.10;;;11.40;99.90;;;;;;5085626;27;20508;-68
2024/03/15 05:25:10;;;;;;;11.68;10.45;;;11.40;99.90;;;;;;5082929;28;20048;-68
2024/03/15 05:27:36;;;;;;;13.25;10.95;;;11.40;99.90;;;;;;5063105;28;20036;-68
2024/03/15 05:30:04;;;;;;;13.18;10.73;;;11.40;99.90;;;;;;5066354;28;20085;-68
2024/03/15 05:32:29;;;;;;;14.90;11.15;;;11.40;99.90;;;;;;5081466;28;20124;-68
2024/03/15 05:34:55;;;;;;;12.65;11.27;;;11.40;99.90;;;;;;5078105;28;20044;-68
2024/03/15 05:37:21;;;;;;;16.80;11.35;;;11.50;99.90;;;;;;5094884;27;20527;-68
2024/03/15 05:39:47;;;;;;;17.05;12.02;;;11.50;99.90;;;;;;5065710;28;20066;-68
2024/03/15 05:42:13;;;;;;;13.98;12.05;;;11.50;99.90;;;;;;5087801;28;20051;-68
2024/03/15 05:44:39;;;;;;;13.07;11.68;;;11.50;99.90;;;;;;5080388;28;20040;-68
2024/03/15 05:47:05;;;;;;;15.50;12.82;;;11.50;99.90;;;;;;5084425;28;20502;-68
2024/03/15 05:49:30;;;;;;;15.15;11.88;;;11.50;99.90;;;;;;5082369;28;20366;-68
2024/03/15 05:51:56;;;;;;;13.23;11.75;;;11.50;99.90;;;;;;5079984;28;20070;-68
2024/03/15 05:54:21;;;;;;;16.00;12.25;;;11.50;99.90;;;;;;5078922;28;20047;-68
2024/03/15 05:56:47;;;;;;;16.40;13.18;;;11.60;99.90;;;;;;5088768;28;20048;-68
2024/03/15 05:59:13;;;;;;;14.48;12.63;;;11.50;99.90;;;;;;5071574;28;20101;-68
2024/03/15 06:01:41;;;;;;;16.77;12.95;;;11.50;99.90;;;;;;5067818;28;20048;-68
2024/03/15 06:04:10;;;;;;;14.60;12.65;;;11.50;99.90;;;;;;5069645;28;20066;-68
2024/03/15 06:06:38;;;;;;;15.77;12.70;;;11.60;99.90;;;;;;5069412;28;20059;-68
2024/03/15 06:09:05;;;;;;;13.75;12.32;;;11.60;99.90;;;;;;5067648;28;20516;-68
2024/03/15 06:11:31;;;;;;;14.23;12.52;;;11.60;99.90;;;;;;5099199;27;20485;-68
2024/03/15 06:13:57;;;;;;;13.90;12.43;;;11.60;99.90;;;;;;5067944;27;20047;-68
2024/03/15 06:16:26;;;;;;;15.50;12.40;;;11.60;99.90;;;;;;5082387;28;20461;-68
2024/03/15 06:18:53;;;;;;;16.80;12.77;;;11.70;99.90;;;;;;5067705;28;20542;-68
2024/03/15 06:21:19;;;;;;;17.45;12.45;;;11.60;99.90;;;;;;5082654;28;20036;-68
2024/03/15 06:23:44;;;;;;;14.35;11.32;;;11.70;99.90;;;;;;5064042;28;20988;-68
2024/03/15 06:26:11;;;;;;;12.82;11.35;;;11.70;99.90;;;;;;5064831;28;20043;-68
2024/03/15 06:28:37;;;;;;;17.85;12.38;;;11.70;99.90;;;;;;5088842;28;20546;-68
2024/03/15 06:31:04;;;;;;;13.57;11.80;;;11.70;99.90;;;;;;5086929;28;20460;-68
2024/03/15 06:33:33;;;;;;;15.95;11.60;;;11.70;99.90;;;;;;5087686;28;20082;-68
2024/03/15 06:36:00;;;;;;;14.45;12.10;;;11.80;99.90;;;;;;5068056;28;20681;-68
2024/03/15 06:39:24;;;;;;;13.07;11.57;;;12.00;99.90;;;;;;5066430;28;20056;-68
2024/03/15 06:41:29;;;;;;;16.00;11.73;;;11.70;99.90;;;;;;5069401;28;20539;-67
2024/03/15 06:47:04;;;;;;;11.55;10.35;;;11.80;99.90;;;;;;5062937;28;20056;-67
2024/03/15 06:49:43;;;;;;;13.98;10.68;;;11.80;99.90;;;;;;5084050;28;20067;-67
2024/03/15 06:52:34;;;;;;;13.65;10.15;;;11.80;99.90;;;;;;5063756;28;20044;-67
2024/03/15 06:55:04;;;;;;;12.43;10.38;;;11.80;99.90;;;;;;5065066;28;20212;-66
2024/03/15 06:57:32;;;;;;;13.63;10.93;;;11.80;99.90;;;;;;5065921;28;20539;-67
2024/03/15 06:59:58;;;;;;;12.75;11.25;;;11.80;99.90;;;;;;5083253;28;20047;-67
2024/03/15 07:02:24;;;;;;;13.30;10.98;;;11.90;99.90;;;;;;5085049;27;20036;-68
2024/03/15 07:04:52;;;;;;;11.98;10.55;;;12.20;99.90;;;;;;5094181;27;20081;-67
2024/03/15 07:07:18;;;;;;;14.30;10.98;;;11.90;99.90;;;;;;5065597;28;20052;-66
2024/03/15 07:09:45;;;;;;;11.43;10.20;;;11.90;99.90;;;;;;5080722;28;20050;-67
2024/03/15 07:12:14;;;;;;;14.18;11.02;;;11.90;99.90;;;;;;5077937;28;20054;-67
2024/03/15 07:14:39;;;;;;;12.57;11.07;;;11.90;99.90;;;;;;5061392;28;20058;-67
2024/03/15 07:17:05;;;;;;;11.45;10.30;;;11.90;99.90;;;;;;5066499;28;20043;-68
2024/03/15 07:19:32;;;;;;;11.80;10.70;;;11.90;99.90;;;;;;5062062;28;20127;-68
2024/03/15 07:21:58;;;;;;;13.32;11.43;;;11.90;99.90;;;;;;5062347;28;20126;-68
2024/03/15 07:24:23;;;;;;;13.65;10.68;;;11.80;99.90;;;;;;5081907;28;20056;-68
2024/03/15 07:26:49;;;;;;;12.50;10.85;;;11.90;99.90;;;;;;5083025;28;20032;-68
2024/03/15 07:29:15;;;;;;;12.05;10.45;;;12.00;99.90;;;;;;5064395;28;20032;-68
2024/03/15 07:31:40;;;;;;;12.02;9.82;;;11.90;99.90;;;;;;5083000;28;20035;-68
2024/03/15 07:34:07;;;;;;;12.43;9.65;;;12.00;99.90;;;;;;5083429;28;20047;-68
2024/03/15 07:36:33;;;;;;;11.70;9.25;;;11.90;99.90;;;;;;5083324;28;20044;-68
2024/03/15 07:38:59;;;;;;;11.45;9.02;;;11.90;99.90;;;;;;5083789;28;20043;-68
2024/03/15 07:41:28;;;;;;;10.25;9.05;;;11.90;99.90;;;;;;5084127;28;20194;-68
2024/03/15 07:43:54;;;;;;;9.90;9.00;;;12.00;99.90;;;;;;5064843;28;20056;-68
2024/03/15 07:46:21;;;;;;;12.05;9.35;;;12.10;99.90;;;;;;5083646;28;20069;-68
2024/03/15 07:48:47;;;;;;;12.98;8.90;;;12.10;99.90;;;;;;5064089;28;20788;-68
2024/03/15 07:51:13;;;;;;;13.45;9.52;;;12.10;99.90;;;;;;5067043;28;20039;-68
2024/03/15 07:53:39;;;;;;;11.52;8.73;;;12.20;99.90;;;;;;5067543;28;20054;-68
2024/03/15 07:56:09;;;;;;;9.13;8.32;;;12.20;99.90;;;;;;5064541;28;20162;-68
2024/03/15 07:58:36;;;;;;;8.90;8.00;;;12.20;99.90;;;;;;5066312;28;20651;-68
2024/03/15 08:01:02;;;;;;;9.82;8.80;;;12.20;99.90;;;;;;5064764;28;20036;-68
2024/03/15 08:03:28;;;;;;;10.13;8.70;;;12.30;99.90;;;;;;5083996;28;20059;-68
2024/03/15 08:06:00;;;;;;;10.45;7.55;;;12.30;99.90;;;;;;5095457;27;20036;-68
2024/03/15 08:08:30;;;;;;;8.90;6.88;;;12.40;99.90;;;;;;5094674;27;20051;-68
2024/03/15 08:10:56;;;;;;;7.88;7.07;;;12.50;99.90;;;;;;5097100;27;20458;-68
2024/03/15 08:13:25;;;;;;;7.18;6.57;;;12.30;99.90;;;;;;5083837;28;20121;-68
2024/03/15 08:15:59;;;;;;;7.50;6.60;;;12.40;99.90;;;;;;5080586;28;20496;-68
2024/03/15 08:18:28;;;;;;;7.68;6.45;;;12.40;99.90;;;;;;5064055;28;20039;-68
2024/03/15 08:20:54;;;;;;;7.97;6.50;;;12.40;99.90;;;;;;5058888;28;20039;-68
2024/03/15 08:23:20;;;;;;;8.10;6.82;;;12.40;99.90;;;;;;5055265;28;20122;-69
2024/03/15 08:25:46;;;;;;;9.23;7.07;;;12.50;99.90;;;;;;5057923;28;20040;-67
2024/03/15 08:28:15;;;;;;;11.00;7.80;;;12.50;99.90;;;;;;5097391;27;20550;-68
2024/03/15 08:30:43;;;;;;;12.27;6.20;;;12.50;99.90;;;;;;5080385;28;20036;-68
2024/03/15 08:33:10;;;;;;;8.55;6.47;;;12.50;99.90;;;;;;5066831;28;20043;-68
2024/03/15 08:35:36;;;;;;;8.60;6.15;;;12.60;99.90;;;;;;5061540;28;20048;-68
2024/03/15 08:38:01;;;;;;;8.00;5.80;;;12.60;99.90;;;;;;5065383;27;20066;-68
2024/03/15 08:40:28;;;;;;;8.18;6.82;;;12.70;99.90;;;;;;5094389;27;20506;-68
2024/03/15 08:42:54;;;;;;;9.90;6.35;;;12.80;99.90;;;;;;5095892;27;20054;-69
2024/03/15 08:45:21;;;;;;;7.78;5.75;;;12.70;99.90;;;;;;5060952;28;20044;-67
2024/03/15 08:47:48;;;;;;;6.22;5.63;;;12.80;99.90;;;;;;5063309;28;20449;-67
2024/03/15 08:50:14;;;;;;;12.55;6.10;;;12.80;99.90;;;;;;5061372;28;20139;-68
2024/03/15 08:52:40;;;;;;;7.95;5.60;;;12.80;99.90;;;;;;5081324;27;20035;-68
2024/03/15 08:55:09;;;;;;;8.32;5.75;;;12.80;99.90;;;;;;5082603;28;20050;-67
2024/03/15 08:57:36;;;;;;;7.95;5.80;;;12.80;99.90;;;;;;5079181;28;20738;-69
2024/03/15 09:00:06;;;;;;;6.53;5.43;;;12.80;99.90;;;;;;5089451;27;20052;-68
2024/03/15 09:02:31;;;;;;;9.15;5.68;;;12.80;99.90;;;;;;5076405;28;20078;-68
2024/03/15 09:04:57;;;;;;;7.28;5.00;;;12.80;99.90;;;;;;5050280;28;20347;-68
2024/03/15 09:07:24;;;;;;;7.97;4.88;;;12.80;99.90;;;;;;5085296;27;21780;-68
2024/03/15 09:09:50;;;;;;;6.55;4.20;;;12.90;99.90;;;;;;5090061;27;20879;-68
2024/03/15 09:12:18;;;;;;;7.00;4.80;;;13.00;99.90;;;;;;5061199;28;20047;-68
2024/03/15 09:14:46;;;;;;;8.00;5.00;;;13.20;99.90;;;;;;5073908;28;21827;-68
2024/03/15 09:17:12;;;;;;;10.75;5.95;;;13.10;99.90;;;;;;5087817;27;20447;-68
2024/03/15 09:19:38;;;;;;;7.22;5.38;;;13.20;99.90;;;;;;5074270;28;20039;-68
2024/03/15 09:22:03;;;;;;;7.47;4.57;;;13.40;99.90;;;;;;5076284;28;20046;-68
2024/03/15 09:24:32;;;;;;;8.70;4.70;;;13.40;99.90;;;;;;5090368;27;20054;-68
2024/03/15 09:26:58;;;;;;;8.82;5.20;;;13.40;99.90;;;;;;5079140;28;20040;-68
2024/03/15 09:29:23;;;;;;;7.95;4.60;;;13.40;99.90;;;;;;5077264;28;20047;-68
2024/03/15 09:31:51;;;;;;;9.23;4.85;;;13.30;99.90;;;;;;5074937;28;20047;-68
2024/03/15 09:34:17;;;;;;;6.20;4.32;;;13.50;99.90;;;;;;5057772;28;20051;-68
2024/03/15 09:36:44;;;;;;;7.72;4.47;;;13.30;99.90;;;;;;5055855;28;20524;-68
2024/03/15 09:39:13;;;;;;;8.13;4.32;;;13.30;99.90;;;;;;5076852;28;20039;-68
2024/03/15 09:41:41;;;;;;;8.32;4.88;;;13.20;99.90;;;;;;5053909;28;20508;-68
2024/03/15 09:44:13;;;;;;;6.95;4.75;;;13.20;99.90;;;;;;5074458;28;20071;-68
2024/03/15 09:46:40;;;;;;;6.85;4.20;;;13.20;99.90;;;;;;5056714;28;20056;-68
2024/03/15 09:49:11;;;;;;;9.30;4.13;;;13.20;99.90;;;;;;5073013;28;20036;-68
2024/03/15 09:51:39;;;;;;;10.70;3.80;;;13.10;99.90;;;;;;5072664;28;20120;-68
2024/03/15 09:54:08;;;;;;;9.60;4.28;;;13.20;99.90;;;;;;5085933;27;20059;-68
2024/03/15 09:56:37;;;;;;;7.93;3.08;;;13.20;99.90;;;;;;5055579;28;20051;-67
2024/03/15 09:59:04;;;;;;;9.13;3.47;;;13.20;99.90;;;;;;5048685;28;20293;-67
2024/03/15 10:01:32;;;;;;;8.70;3.40;;;13.30;99.90;;;;;;5079835;28;20486;-67
2024/03/15 10:03:57;;;;;;;6.70;2.67;;;13.30;99.90;;;;;;5055628;28;20078;-67
2024/03/15 10:06:24;;;;;;;5.22;2.20;;;13.30;99.90;;;;;;5059568;28;20691;-68
2024/03/15 10:08:50;;;;;;;5.53;2.53;;;13.40;99.90;;;;;;5075639;28;20039;-67
2024/03/15 10:11:15;;;;;;;3.97;2.33;;;13.30;99.90;;;;;;5077346;28;20391;-67
2024/03/15 10:13:41;;;;;;;5.85;2.10;;;13.30;99.90;;;;;;5062022;28;20043;-67
2024/03/15 10:16:09;;;;;;;8.57;3.30;;;13.40;99.90;;;;;;5068456;28;20090;-67
2024/03/15 10:18:39;;;;;;;5.82;1.65;;;13.40;99.90;;;;;;5083816;28;20043;-67
2024/03/15 10:21:07;;;;;;;11.07;2.08;;;13.50;99.90;;;;;;5064724;28;20048;-67
2024/03/15 10:23:33;;;;;;;6.60;2.20;;;13.40;99.90;;;;;;5088564;28;20036;-68
2024/03/15 10:26:00;;;;;;;6.72;2.28;;;13.40;99.90;;;;;;5085982;28;20402;-67
2024/03/15 10:28:26;;;;;;;4.72;2.00;;;13.40;99.90;;;;;;5085842;28;20047;-67
2024/03/15 10:30:55;;;;;;;5.20;1.85;;;13.40;99.90;;;;;;5067038;28;20039;-67
2024/03/15 10:33:21;;;;;;;5.10;1.70;;;13.40;99.90;;;;;;5086049;28;20048;-67
2024/03/15 10:35:47;;;;;;;5.72;2.70;;;13.50;99.90;;;;;;5063703;28;20035;-67
2024/03/15 10:38:14;;;;;;;9.82;2.05;;;13.50;99.90;;;;;;5063431;28;20097;-67
2024/03/15 10:40:40;;;;;;;5.53;1.27;;;13.60;99.90;;;;;;5091583;28;20043;-67
2024/03/15 10:43:10;;;;;;;9.45;1.65;;;13.60;99.90;;;;;;5083872;28;20450;-67
2024/03/15 10:45:36;;;;;;;7.65;1.98;;;13.70;99.90;;;;;;5063883;28;226491;-68
2024/03/15 10:48:10;;;;;;;5.95;1.55;;;13.70;99.90;;;;;;5059546;28;20113;-67
2024/03/15 10:50:38;;;;;;;7.07;1.42;;;13.80;99.90;;;;;;5095566;27;20712;-67
2024/03/15 10:53:14;;;;;;;10.80;1.65;;;13.80;99.90;;;;;;5087290;28;20039;-67
2024/03/15 10:55:39;;;;;;;;;;;13.90;99.90;;;;;;5068153;28;21573;-67
2024/03/15 10:58:08;;;;;;;10.15;2.55;;;14.20;99.90;;;;;;5072963;28;19915;-67
2024/03/15 11:00:33;;;;;;;5.40;1.85;;;14.00;99.90;;;;;;5082190;28;20032;-67
2024/03/15 11:03:12;;;;;;;6.22;1.88;;;14.10;99.90;;;;;;5080884;28;20065;-67
2024/03/15 11:05:38;;;;;;;6.03;1.58;;;14.10;99.90;;;;;;5098321;28;20104;-67
2024/03/15 11:08:12;;;;;;;6.88;1.73;;;14.10;99.90;;;;;;5111043;27;20401;-67
2024/03/15 11:10:38;;;;;;;6.07;1.70;;;14.00;99.90;;;;;;5083423;28;20043;-67
2024/03/15 11:13:04;;;;;;;8.32;2.80;;;14.10;99.90;;;;;;5081245;28;20524;-68
2024/03/15 11:15:37;;;;;;;4.43;1.35;;;14.20;99.90;;;;;;5077733;28;20059;-68
2024/03/15 11:18:06;;;;;;;7.03;1.63;;;14.50;99.90;;;;;;5085268;28;20140;-67
2024/03/15 11:20:54;;;;;;;6.22;1.58;;;14.80;99.90;;;;;;5079870;28;20048;-68
2024/03/15 11:23:22;;;;;;;5.70;1.38;;;15.60;99.90;;;;;;5076943;28;20166;-68
2024/03/15 11:25:59;;;;;;;7.35;1.85;;;15.50;99.90;;;;;;5092494;28;20386;-68
2024/03/15 11:28:27;;;;;;;8.23;2.10;;;15.60;99.90;;;;;;5095325;28;20436;-67
2024/03/15 11:30:53;;;;;;;6.72;1.75;;;15.50;99.90;;;;;;5079512;28;20055;-68
2024/03/15 11:33:19;;;;;;;5.18;1.88;;;15.30;99.90;;;;;;5076594;28;21106;-67
2024/03/15 11:35:45;;;;;;;8.35;2.63;;;15.30;99.90;;;;;;5065133;28;20071;-67
2024/03/15 11:38:15;;;;;;;6.75;2.10;;;15.20;99.90;;;;;;5081058;28;20126;-67
2024/03/15 11:40:42;;;;;;;10.60;2.78;;;15.20;99.90;;;;;;5110952;27;20516;-67
2024/03/15 11:43:08;;;;;;;6.10;1.90;;;15.00;99.90;;;;;;5061464;28;20043;-67
2024/03/15 11:45:42;;;;;;;6.88;1.98;;;14.90;99.90;;;;;;5099368;28;20051;-67
2024/03/15 11:48:19;;;;;;;6.57;1.90;;;14.80;99.90;;;;;;5082958;28;20385;-67
2024/03/15 11:50:46;;;;;;;6.15;1.95;;;14.80;99.90;;;;;;5113043;28;20399;-67
2024/03/15 11:53:13;;;;;;;5.75;1.67;;;14.60;99.90;;;;;;5099700;28;20436;-67
2024/03/15 11:55:42;;;;;;;7.90;2.03;;;14.70;99.90;;;;;;5082153;28;20039;-67
2024/03/15 11:58:13;;;;;;;7.75;2.03;;;14.50;99.90;;;;;;5108882;28;20044;-67
2024/03/15 12:00:44;;;;;;;6.90;2.15;;;14.40;99.90;;;;;;5112663;28;20051;-67
2024/03/15 12:03:15;;;;;;;7.43;2.30;;;14.20;99.90;;;;;;5080460;28;20063;-67
2024/03/15 12:05:42;;;;;;;8.68;2.10;;;14.10;99.90;;;;;;5083179;28;20032;-67
2024/03/15 12:08:20;;;;;;;3.90;1.95;;;14.10;99.90;;;;;;5113771;27;20500;-67
2024/03/15 12:10:46;;;;;;;7.95;2.28;;;14.00;99.90;;;;;;5083278;27;20039;-67
2024/03/15 12:13:25;;;;;;;8.70;2.65;;;14.10;99.90;;;;;;5082121;28;20039;-67
2024/03/15 12:15:53;;;;;;;7.40;2.25;;;14.10;99.90;;;;;;5082739;28;20046;-67
2024/03/15 12:18:23;;;;;;;8.75;2.70;;;14.10;99.90;;;;;;5112588;27;20051;-68
2024/03/15 12:20:50;;;;;;;8.10;2.70;;;14.20;99.90;;;;;;5084697;28;20130;-68
2024/03/15 12:23:18;;;;;;;11.68;2.97;;;14.30;99.90;;;;;;5087345;28;20047;-67
2024/03/15 12:25:48;;;;;;;7.95;2.08;;;14.30;99.90;;;;;;5081477;28;20067;-68
2024/03/15 12:28:18;;;;;;;10.20;3.30;;;14.30;99.90;;;;;;5114015;27;20520;-68
2024/03/15 12:30:54;;;;;;;9.57;2.92;;;14.10;99.90;;;;;;5083820;28;20036;-68
2024/03/15 12:33:19;;;;;;;8.10;3.97;;;14.10;99.90;;;;;;5080669;28;20044;-68
2024/03/15 12:35:48;;;;;;;9.73;2.90;;;14.30;99.90;;;;;;5081843;28;20050;-68
2024/03/15 12:38:18;;;;;;;10.23;4.25;;;14.10;99.90;;;;;;5103247;28;20047;-68
2024/03/15 12:40:44;;;;;;;7.95;3.63;;;14.30;99.90;;;;;;5103371;28;20035;-68
2024/03/15 12:43:10;;;;;;;7.03;3.45;;;14.60;99.90;;;;;;5085531;28;20394;-67
2024/03/15 12:45:38;;;;;;;7.55;3.35;;;14.80;99.90;;;;;;5103548;27;20035;-68
2024/03/15 12:48:04;;;;;;;9.00;3.45;;;14.80;99.90;;;;;;5100862;28;20052;-68